地図

経路データ

SID SEASON NUMBER BASIN SUBBASIN NAME ISO_TIME NATURE LAT LON WMO_WIND WMO_PRES WMO_AGENCY TRACK_TYPE DIST2LAND LANDFALL IFLAG USA_AGENCY USA_ATCF_ID USA_LAT USA_LON USA_RECORD USA_STATUS USA_WIND USA_PRES USA_SSHS USA_R34_NE USA_R34_SE USA_R34_SW USA_R34_NW USA_R50_NE USA_R50_SE USA_R50_SW USA_R50_NW USA_R64_NE USA_R64_SE USA_R64_SW USA_R64_NW USA_POCI USA_ROCI USA_RMW USA_EYE TOKYO_LAT TOKYO_LON TOKYO_GRADE TOKYO_WIND TOKYO_PRES TOKYO_R50_DIR TOKYO_R50_LONG TOKYO_R50_SHORT TOKYO_R30_DIR TOKYO_R30_LONG TOKYO_R30_SHORT TOKYO_LAND CMA_LAT CMA_LON CMA_CAT CMA_WIND CMA_PRES HKO_LAT HKO_LON HKO_CAT HKO_WIND HKO_PRES NEWDELHI_LAT NEWDELHI_LON NEWDELHI_GRADE NEWDELHI_WIND NEWDELHI_PRES NEWDELHI_CI NEWDELHI_DP NEWDELHI_POCI REUNION_LAT REUNION_LON REUNION_TYPE REUNION_WIND REUNION_PRES REUNION_TNUM REUNION_CI REUNION_RMW REUNION_R34_NE REUNION_R34_SE REUNION_R34_SW REUNION_R34_NW REUNION_R50_NE REUNION_R50_SE REUNION_R50_SW REUNION_R50_NW REUNION_R64_NE REUNION_R64_SE REUNION_R64_SW REUNION_R64_NW BOM_LAT BOM_LON BOM_TYPE BOM_WIND BOM_PRES BOM_TNUM BOM_CI BOM_RMW BOM_R34_NE BOM_R34_SE BOM_R34_SW BOM_R34_NW BOM_R50_NE BOM_R50_SE BOM_R50_SW BOM_R50_NW BOM_R64_NE BOM_R64_SE BOM_R64_SW BOM_R64_NW BOM_ROCI BOM_POCI BOM_EYE BOM_POS_METHOD BOM_PRES_METHOD NADI_LAT NADI_LON NADI_CAT NADI_WIND NADI_PRES WELLINGTON_LAT WELLINGTON_LON WELLINGTON_WIND WELLINGTON_PRES DS824_LAT DS824_LON DS824_STAGE DS824_WIND DS824_PRES TD9636_LAT TD9636_LON TD9636_STAGE TD9636_WIND TD9636_PRES TD9635_LAT TD9635_LON TD9635_WIND TD9635_PRES TD9635_ROCI NEUMANN_LAT NEUMANN_LON NEUMANN_CLASS NEUMANN_WIND NEUMANN_PRES MLC_LAT MLC_LON MLC_CLASS MLC_WIND MLC_PRES USA_GUST BOM_GUST BOM_GUST_PER REUNION_GUST REUNION_GUST_PER USA_SEAHGT USA_SEARAD_NE USA_SEARAD_SE USA_SEARAD_SW USA_SEARAD_NW STORM_SPEED STORM_DIR
1887189N11122 1887 20 WP MM NOT_NAMED 1887-07-07 16:00:00 NR 10.5000 121.500 main 45 45 __________O___ -1 10.5000 121.500 4 0 0
1887189N11122 1887 20 WP MM NOT_NAMED 1887-07-07 18:00:00 NR 10.5000 121.494 main 45 45 __________P___ -1 10.5000 121.494 4 1 304
1887189N11122 1887 20 WP MM NOT_NAMED 1887-07-07 21:00:00 NR 10.5312 121.456 main 45 45 __________P___ -1 10.5312 121.456 4 2 314
1887189N11122 1887 20 WP MM NOT_NAMED 1887-07-08 00:00:00 NR 10.6428 121.343 main 69 66 __________P___ -1 10.6428 121.343 4 5 316
1887189N11122 1887 20 WP MM NOT_NAMED 1887-07-08 03:00:00 NR 10.8831 121.112 main 88 88 __________P___ -1 10.8831 121.112 4 7 317
1887189N11122 1887 20 WP MM NOT_NAMED 1887-07-08 04:00:00 NR 11.0000 121.000 main 100 100 __________O___ -1 11.0000 121.000 4 11 317
1887189N11122 1887 20 WP MM NOT_NAMED 1887-07-08 06:00:00 NR 11.2939 120.720 main 109 86 __________P___ -1 11.2939 120.720 4 14 317
1887189N11122 1887 20 WP MM NOT_NAMED 1887-07-08 09:00:00 NR 11.8485 120.179 main 86 86 __________P___ -1 11.8485 120.179 4 17 316
1887189N11122 1887 20 WP MM NOT_NAMED 1887-07-08 12:00:00 NR 12.4754 119.536 main 132 132 __________P___ -1 12.4754 119.536 4 18 314
1887189N11122 1887 20 WP MM NOT_NAMED 1887-07-08 15:00:00 NR 13.1030 118.837 main 165 163 __________P___ -1 13.1030 118.837 4 19 312
1887189N11122 1887 20 WP MM NOT_NAMED 1887-07-08 16:00:00 NR 13.3000 118.600 main 184 184 __________O___ -1 13.3000 118.600 4 17 309
1887189N11122 1887 20 WP MM NOT_NAMED 1887-07-08 18:00:00 NR 13.6469 118.146 main 239 240 __________P___ -1 13.6469 118.146 4 17 307
1887189N11122 1887 20 WP MM NOT_NAMED 1887-07-08 21:00:00 NR 14.1362 117.439 main 301 298 __________P___ -1 14.1362 117.439 4 17 304
1887189N11122 1887 20 WP MM NOT_NAMED 1887-07-09 00:00:00 NR 14.5825 116.724 main 355 355 __________P___ -1 14.5825 116.724 4 16 302
1887189N11122 1887 20 WP MM NOT_NAMED 1887-07-09 03:00:00 NR 14.9796 116.025 main 412 412 __________P___ -1 14.9796 116.025 4 16 300
1887189N11122 1887 20 WP MM NOT_NAMED 1887-07-09 04:00:00 NR 15.1000 115.800 main 429 429 __________O___ -1 15.1000 115.800 4 14 299
1887189N11122 1887 20 WP MM NOT_NAMED 1887-07-09 06:00:00 NR 15.3224 115.387 main 467 467 __________P___ -1 15.3224 115.387 4 13 298
1887189N11122 1887 20 WP MM NOT_NAMED 1887-07-09 09:00:00 NR 15.6124 114.793 main 526 509 __________P___ -1 15.6124 114.793 4 13 296
1887189N11122 1887 20 WP MM NOT_NAMED 1887-07-09 12:00:00 NR 15.8698 114.208 main 509 446 __________P___ -1 15.8698 114.208 4 12 294
1887189N11122 1887 20 WP MM NOT_NAMED 1887-07-09 15:00:00 NR 16.1164 113.608 main 446 423 __________P___ -1 16.1164 113.608 4 13 293
1887189N11122 1887 20 WP MM NOT_NAMED 1887-07-09 16:00:00 NR 16.2000 113.400 main 423 377 __________O___ -1 16.2000 113.400 4 13 293
1887189N11122 1887 20 WP MM NOT_NAMED 1887-07-09 18:00:00 NR 16.3725 112.968 main 377 309 __________P___ -1 16.3725 112.968 4 14 293
1887189N11122 1887 20 WP MM NOT_NAMED 1887-07-09 21:00:00 NR 16.6429 112.287 main 309 238 __________P___ -1 16.6429 112.287 4 14 292
1887189N11122 1887 20 WP MM NOT_NAMED 1887-07-10 00:00:00 NR 16.9223 111.575 main 238 158 __________P___ -1 16.9223 111.575 4 15 292
1887189N11122 1887 20 WP MM NOT_NAMED 1887-07-10 03:00:00 NR 17.2056 110.845 main 158 138 __________P___ -1 17.2056 110.845 4 15 292
1887189N11122 1887 20 WP MM NOT_NAMED 1887-07-10 04:00:00 NR 17.3000 110.600 main 138 __________O___ -1 17.3000 110.600 4 15 292

デジタル台風データ・検索

IBTrACS Databaseについて

本データベースは、米国NOAAが公開する1842年以降の世界の熱帯低気圧のベストトラックデータアーカイブInternational Best Track Archive for Climate Stewardship (IBTrACS)を、ウェブで閲覧しやすい形式に変換したものです。

最終更新日:2021-10-08